sensor_id;sensor_type;location;lat;lon;timestamp;pressure;altitude;pressure_sealevel;temperature;humidity
10366;BME280;5229;41.820;23.490;2023-05-09T00:00:25;90140.13;;;15.16;66.09
10366;BME280;5229;41.820;23.490;2023-05-09T00:02:51;90137.81;;;15.15;66.25
10366;BME280;5229;41.820;23.490;2023-05-09T00:05:19;90132.59;;;15.15;65.95
10366;BME280;5229;41.820;23.490;2023-05-09T00:07:45;90131.84;;;15.14;66.01
10366;BME280;5229;41.820;23.490;2023-05-09T00:10:12;90133.66;;;15.14;65.96
10366;BME280;5229;41.820;23.490;2023-05-09T00:12:39;90125.41;;;15.12;65.96
10366;BME280;5229;41.820;23.490;2023-05-09T00:15:08;90130.97;;;15.10;66.46
10366;BME280;5229;41.820;23.490;2023-05-09T00:17:37;90126.50;;;15.11;66.25
10366;BME280;5229;41.820;23.490;2023-05-09T00:20:06;90131.75;;;15.11;66.09
10366;BME280;5229;41.820;23.490;2023-05-09T00:22:36;90130.97;;;15.10;66.00
10366;BME280;5229;41.820;23.490;2023-05-09T00:25:04;90125.75;;;15.10;65.99
10366;BME280;5229;41.820;23.490;2023-05-09T00:27:31;90127.25;;;15.11;65.79
10366;BME280;5229;41.820;23.490;2023-05-09T00:29:58;90129.53;;;15.13;66.10
10366;BME280;5229;41.820;23.490;2023-05-09T00:32:25;90128.91;;;15.16;66.05
10366;BME280;5229;41.820;23.490;2023-05-09T00:34:54;90123.75;;;15.19;65.85
10366;BME280;5229;41.820;23.490;2023-05-09T00:37:21;90128.34;;;15.22;66.09
10366;BME280;5229;41.820;23.490;2023-05-09T00:39:48;90123.88;;;15.23;66.06
10366;BME280;5229;41.820;23.490;2023-05-09T00:42:15;90126.50;;;15.23;65.91
10366;BME280;5229;41.820;23.490;2023-05-09T00:44:42;90125.84;;;15.26;65.85
10366;BME280;5229;41.820;23.490;2023-05-09T00:47:09;90121.03;;;15.28;65.92
10366;BME280;5229;41.820;23.490;2023-05-09T00:49:35;90120.28;;;15.27;66.19
10366;BME280;5229;41.820;23.490;2023-05-09T00:52:05;90123.97;;;15.26;65.80
10366;BME280;5229;41.820;23.490;2023-05-09T00:54:32;90129.66;;;15.28;66.06
10366;BME280;5229;41.820;23.490;2023-05-09T00:56:58;90127.03;;;15.28;65.82
10366;BME280;5229;41.820;23.490;2023-05-09T00:59:26;90126.94;;;15.25;66.05
10366;BME280;5229;41.820;23.490;2023-05-09T01:01:53;90133.34;;;15.27;66.18
10366;BME280;5229;41.820;23.490;2023-05-09T01:04:20;90133.03;;;15.29;66.10
10366;BME280;5229;41.820;23.490;2023-05-09T01:06:54;90130.09;;;15.30;66.42
10366;BME280;5229;41.820;23.490;2023-05-09T01:09:31;90137.16;;;15.30;66.12
10366;BME280;5229;41.820;23.490;2023-05-09T01:12:10;90132.25;;;15.28;65.93
10366;BME280;5229;41.820;23.490;2023-05-09T01:14:45;90132.25;;;15.28;65.89
10366;BME280;5229;41.820;23.490;2023-05-09T01:17:21;90132.38;;;15.32;65.88
10366;BME280;5229;41.820;23.490;2023-05-09T01:19:57;90126.38;;;15.31;65.74
10366;BME280;5229;41.820;23.490;2023-05-09T01:22:29;90130.09;;;15.30;66.04
10366;BME280;5229;41.820;23.490;2023-05-09T01:25:08;90136.84;;;15.31;65.48
10366;BME280;5229;41.820;23.490;2023-05-09T01:27:41;90141.13;;;15.36;65.79
10366;BME280;5229;41.820;23.490;2023-05-09T01:30:15;90142.94;;;15.35;65.67
10366;BME280;5229;41.820;23.490;2023-05-09T01:32:44;90143.72;;;15.36;65.57
10366;BME280;5229;41.820;23.490;2023-05-09T01:35:13;90137.69;;;15.35;65.75
10366;BME280;5229;41.820;23.490;2023-05-09T01:37:41;90131.41;;;15.36;65.59
10366;BME280;5229;41.820;23.490;2023-05-09T01:40:13;90134.78;;;15.37;66.47
10366;BME280;5229;41.820;23.490;2023-05-09T01:42:43;90131.69;;;15.35;66.52
10366;BME280;5229;41.820;23.490;2023-05-09T01:45:12;90135.09;;;15.35;66.61
10366;BME280;5229;41.820;23.490;2023-05-09T01:47:41;90136.19;;;15.34;66.36
10366;BME280;5229;41.820;23.490;2023-05-09T01:50:10;90143.56;;;15.32;66.51
10366;BME280;5229;41.820;23.490;2023-05-09T01:52:39;90144.03;;;15.34;66.20
10366;BME280;5229;41.820;23.490;2023-05-09T01:55:07;90146.19;;;15.32;65.87
10366;BME280;5229;41.820;23.490;2023-05-09T01:57:36;90135.31;;;15.30;65.59
10366;BME280;5229;41.820;23.490;2023-05-09T02:00:05;90139.44;;;15.31;65.48
10366;BME280;5229;41.820;23.490;2023-05-09T02:02:32;90138.34;;;15.32;65.17
10366;BME280;5229;41.820;23.490;2023-05-09T02:05:01;90143.25;;;15.34;65.67
10366;BME280;5229;41.820;23.490;2023-05-09T02:07:28;90151.88;;;15.34;65.84
10366;BME280;5229;41.820;23.490;2023-05-09T02:09:57;90148.16;;;15.35;65.49
10366;BME280;5229;41.820;23.490;2023-05-09T02:12:24;90153.38;;;15.35;65.65
10366;BME280;5229;41.820;23.490;2023-05-09T02:14:51;90154.19;;;15.36;65.21
10366;BME280;5229;41.820;23.490;2023-05-09T02:17:18;90151.25;;;15.37;65.44
10366;BME280;5229;41.820;23.490;2023-05-09T02:19:46;90154.59;;;15.38;64.86
10366;BME280;5229;41.820;23.490;2023-05-09T02:22:14;90154.28;;;15.39;64.79
10366;BME280;5229;41.820;23.490;2023-05-09T02:24:42;90158.75;;;15.39;65.31
10366;BME280;5229;41.820;23.490;2023-05-09T02:27:10;90163.63;;;15.40;65.12
10366;BME280;5229;41.820;23.490;2023-05-09T02:29:40;90162.13;;;15.39;64.66
10366;BME280;5229;41.820;23.490;2023-05-09T02:32:11;90164.72;;;15.39;64.67
10366;BME280;5229;41.820;23.490;2023-05-09T02:34:39;90161.38;;;15.39;64.62
10366;BME280;5229;41.820;23.490;2023-05-09T02:37:07;90170.28;;;15.38;64.96
10366;BME280;5229;41.820;23.490;2023-05-09T02:39:36;90171.38;;;15.37;64.70
10366;BME280;5229;41.820;23.490;2023-05-09T02:42:08;90175.84;;;15.36;64.58
10366;BME280;5229;41.820;23.490;2023-05-09T02:44:35;90171.22;;;15.33;64.80
10366;BME280;5229;41.820;23.490;2023-05-09T02:47:04;90176.44;;;15.33;65.16
10366;BME280;5229;41.820;23.490;2023-05-09T02:49:32;90171.22;;;15.33;65.05
10366;BME280;5229;41.820;23.490;2023-05-09T02:51:59;90172.31;;;15.32;65.04
10366;BME280;5229;41.820;23.490;2023-05-09T02:54:25;90174.94;;;15.32;65.00
10366;BME280;5229;41.820;23.490;2023-05-09T02:56:54;90173.41;;;15.31;65.44
10366;BME280;5229;41.820;23.490;2023-05-09T02:59:20;90171.91;;;15.30;65.69
10366;BME280;5229;41.820;23.490;2023-05-09T03:01:47;90177.88;;;15.31;65.21
10366;BME280;5229;41.820;23.490;2023-05-09T03:04:14;90173.41;;;15.31;65.87
10366;BME280;5229;41.820;23.490;2023-05-09T03:06:42;90176.34;;;15.30;66.15
10366;BME280;5229;41.820;23.490;2023-05-09T03:09:09;90172.09;;;15.25;65.74
10366;BME280;5229;41.820;23.490;2023-05-09T03:11:36;90179.06;;;15.21;65.67
10366;BME280;5229;41.820;23.490;2023-05-09T03:14:04;90173.75;;;15.18;66.24
10366;BME280;5229;41.820;23.490;2023-05-09T03:16:32;90173.63;;;15.14;66.06
10366;BME280;5229;41.820;23.490;2023-05-09T03:18:59;90184.84;;;15.15;66.01
10366;BME280;5229;41.820;23.490;2023-05-09T03:21:26;90186.69;;;15.14;66.06
10366;BME280;5229;41.820;23.490;2023-05-09T03:23:53;90188.09;;;15.12;66.52
10366;BME280;5229;41.820;23.490;2023-05-09T03:26:19;90189.94;;;15.11;66.38
10366;BME280;5229;41.820;23.490;2023-05-09T03:28:46;90195.94;;;15.12;66.55
10366;BME280;5229;41.820;23.490;2023-05-09T03:31:15;90197.13;;;15.14;66.55
10366;BME280;5229;41.820;23.490;2023-05-09T03:33:42;90197.91;;;15.15;66.89
10366;BME280;5229;41.820;23.490;2023-05-09T03:36:09;90205.09;;;15.18;66.90
10366;BME280;5229;41.820;23.490;2023-05-09T03:38:36;90204.00;;;15.19;66.81
10366;BME280;5229;41.820;23.490;2023-05-09T03:41:03;90198.00;;;15.18;66.75
10366;BME280;5229;41.820;23.490;2023-05-09T03:43:29;90200.94;;;15.17;66.69
10366;BME280;5229;41.820;23.490;2023-05-09T03:45:56;90205.75;;;15.15;66.50
10366;BME280;5229;41.820;23.490;2023-05-09T03:48:24;90206.06;;;15.13;66.83
10366;BME280;5229;41.820;23.490;2023-05-09T03:50:51;90201.91;;;15.12;66.92
10366;BME280;5229;41.820;23.490;2023-05-09T03:53:18;90211.28;;;15.13;66.64
10366;BME280;5229;41.820;23.490;2023-05-09T03:55:45;90214.66;;;15.14;66.96
10366;BME280;5229;41.820;23.490;2023-05-09T03:58:12;90210.19;;;15.14;66.78
10366;BME280;5229;41.820;23.490;2023-05-09T04:00:39;90213.91;;;15.13;67.16
10366;BME280;5229;41.820;23.490;2023-05-09T04:03:06;90221.28;;;15.11;67.18
10366;BME280;5229;41.820;23.490;2023-05-09T04:05:35;90218.25;;;15.09;66.74
10366;BME280;5229;41.820;23.490;2023-05-09T04:08:02;90212.25;;;15.09;66.86
10366;BME280;5229;41.820;23.490;2023-05-09T04:10:29;90219.31;;;15.08;66.74
10366;BME280;5229;41.820;23.490;2023-05-09T04:12:56;90224.88;;;15.07;66.67
10366;BME280;5229;41.820;23.490;2023-05-09T04:15:22;90225.22;;;15.05;66.90
10366;BME280;5229;41.820;23.490;2023-05-09T04:17:49;90229.22;;;15.03;66.76
10366;BME280;5229;41.820;23.490;2023-05-09T04:20:16;90223.66;;;15.04;66.44
10366;BME280;5229;41.820;23.490;2023-05-09T04:22:44;90232.59;;;15.03;66.33
10366;BME280;5229;41.820;23.490;2023-05-09T04:25:11;90235.97;;;15.04;65.88
10366;BME280;5229;41.820;23.490;2023-05-09T04:27:39;90234.75;;;15.01;66.32
10366;BME280;5229;41.820;23.490;2023-05-09T04:30:06;90238.47;;;15.00;65.85
10366;BME280;5229;41.820;23.490;2023-05-09T04:32:33;90244.78;;;14.99;65.99
10366;BME280;5229;41.820;23.490;2023-05-09T04:35:01;90242.16;;;14.99;65.82
10366;BME280;5229;41.820;23.490;2023-05-09T04:37:28;90241.72;;;14.97;66.07
10366;BME280;5229;41.820;23.490;2023-05-09T04:39:57;90243.13;;;14.95;66.34
10366;BME280;5229;41.820;23.490;2023-05-09T04:42:24;90241.28;;;14.95;65.91
10366;BME280;5229;41.820;23.490;2023-05-09T04:44:50;90246.50;;;14.95;66.32
10366;BME280;5229;41.820;23.490;2023-05-09T04:47:17;90243.44;;;14.93;66.20
10366;BME280;5229;41.820;23.490;2023-05-09T04:49:44;90245.28;;;14.93;66.03
10366;BME280;5229;41.820;23.490;2023-05-09T04:52:11;90239.31;;;14.92;66.19
10366;BME280;5229;41.820;23.490;2023-05-09T04:54:37;90229.97;;;14.91;66.10
10366;BME280;5229;41.820;23.490;2023-05-09T04:57:06;90243.44;;;14.93;66.34
10366;BME280;5229;41.820;23.490;2023-05-09T04:59:33;90238.22;;;14.93;66.04
10366;BME280;5229;41.820;23.490;2023-05-09T05:02:01;90242.56;;;14.89;66.14
10366;BME280;5229;41.820;23.490;2023-05-09T05:04:28;90238.44;;;14.88;66.40
10366;BME280;5229;41.820;23.490;2023-05-09T05:06:54;90251.81;;;14.87;66.15
10366;BME280;5229;41.820;23.490;2023-05-09T05:09:21;90249.97;;;14.87;66.29
10366;BME280;5229;41.820;23.490;2023-05-09T05:11:48;90248.00;;;14.84;66.44
10366;BME280;5229;41.820;23.490;2023-05-09T05:14:16;90244.00;;;14.87;65.96
10366;BME280;5229;41.820;23.490;2023-05-09T05:16:43;90248.75;;;14.85;66.40
10366;BME280;5229;41.820;23.490;2023-05-09T05:19:10;90248.44;;;14.86;66.15
10366;BME280;5229;41.820;23.490;2023-05-09T05:21:37;90257.47;;;14.89;66.41
10366;BME280;5229;41.820;23.490;2023-05-09T05:24:04;90251.94;;;14.90;66.22
10366;BME280;5229;41.820;23.490;2023-05-09T05:26:30;90252.06;;;14.94;66.13
10366;BME280;5229;41.820;23.490;2023-05-09T05:28:57;90255.88;;;14.96;66.22
10366;BME280;5229;41.820;23.490;2023-05-09T05:31:26;90248.81;;;14.97;65.85
10366;BME280;5229;41.820;23.490;2023-05-09T05:33:53;90255.09;;;14.96;66.14
10366;BME280;5229;41.820;23.490;2023-05-09T05:36:20;90256.97;;;14.95;66.49
10366;BME280;5229;41.820;23.490;2023-05-09T05:38:46;90255.41;;;14.94;66.41
10366;BME280;5229;41.820;23.490;2023-05-09T05:41:13;90255.88;;;14.96;66.08
10366;BME280;5229;41.820;23.490;2023-05-09T05:43:40;90260.00;;;14.97;66.10
10366;BME280;5229;41.820;23.490;2023-05-09T05:46:06;90261.53;;;14.98;65.93
10366;BME280;5229;41.820;23.490;2023-05-09T05:48:35;90266.56;;;15.03;65.77
10366;BME280;5229;41.820;23.490;2023-05-09T05:51:02;90260.13;;;15.01;66.01
10366;BME280;5229;41.820;23.490;2023-05-09T05:53:29;90270.25;;;15.02;65.88
10366;BME280;5229;41.820;23.490;2023-05-09T05:55:56;90271.31;;;15.01;65.78
10366;BME280;5229;41.820;23.490;2023-05-09T05:58:22;90272.41;;;15.00;65.70
10366;BME280;5229;41.820;23.490;2023-05-09T06:00:50;90271.63;;;15.00;65.62
10366;BME280;5229;41.820;23.490;2023-05-09T06:03:17;90278.72;;;14.99;65.86
10366;BME280;5229;41.820;23.490;2023-05-09T06:05:46;90279.81;;;14.98;65.53
10366;BME280;5229;41.820;23.490;2023-05-09T06:08:13;90281.34;;;14.99;65.62
10366;BME280;5229;41.820;23.490;2023-05-09T06:10:40;90278.72;;;14.99;65.38
10366;BME280;5229;41.820;23.490;2023-05-09T06:13:07;90275.97;;;14.96;65.31
10366;BME280;5229;41.820;23.490;2023-05-09T06:15:33;90284.59;;;14.96;65.49
10366;BME280;5229;41.820;23.490;2023-05-09T06:18:00;90275.88;;;14.92;65.19
10366;BME280;5229;41.820;23.490;2023-05-09T06:20:27;90274.22;;;14.88;65.08
10366;BME280;5229;41.820;23.490;2023-05-09T06:22:55;90281.97;;;14.84;65.21
10366;BME280;5229;41.820;23.490;2023-05-09T06:25:24;90286.72;;;14.82;64.95
10366;BME280;5229;41.820;23.490;2023-05-09T06:27:50;90282.13;;;14.79;65.03
10366;BME280;5229;41.820;23.490;2023-05-09T06:30:17;90280.16;;;14.76;65.21
10366;BME280;5229;41.820;23.490;2023-05-09T06:32:44;90282.03;;;14.76;65.08
10366;BME280;5229;41.820;23.490;2023-05-09T06:35:11;90276.03;;;14.75;65.19
10366;BME280;5229;41.820;23.490;2023-05-09T06:37:37;90280.06;;;14.73;64.65
10366;BME280;5229;41.820;23.490;2023-05-09T06:40:07;90277.53;;;14.64;64.74
10366;BME280;5229;41.820;23.490;2023-05-09T06:42:34;90272.38;;;14.55;65.00
10366;BME280;5229;41.820;23.490;2023-05-09T06:45:01;90279.75;;;14.53;64.95
10366;BME280;5229;41.820;23.490;2023-05-09T06:47:27;90272.25;;;14.52;65.01
10366;BME280;5229;41.820;23.490;2023-05-09T06:49:54;90283.91;;;14.54;64.80
10366;BME280;5229;41.820;23.490;2023-05-09T06:52:21;90276.19;;;14.58;65.20
10366;BME280;5229;41.820;23.490;2023-05-09T06:54:49;90277.28;;;14.57;64.96
10366;BME280;5229;41.820;23.490;2023-05-09T06:57:17;90279.25;;;14.60;64.88
10366;BME280;5229;41.820;23.490;2023-05-09T06:59:44;90283.06;;;14.62;65.25
10366;BME280;5229;41.820;23.490;2023-05-09T07:02:11;90280.13;;;14.64;65.41
10366;BME280;5229;41.820;23.490;2023-05-09T07:04:38;90280.69;;;14.69;64.61
10366;BME280;5229;41.820;23.490;2023-05-09T07:07:04;90283.41;;;14.73;64.65
10366;BME280;5229;41.820;23.490;2023-05-09T07:09:31;90277.88;;;14.74;64.82
10366;BME280;5229;41.820;23.490;2023-05-09T07:11:58;90284.31;;;14.77;64.71
10366;BME280;5229;41.820;23.490;2023-05-09T07:14:27;90285.84;;;14.78;64.78
10366;BME280;5229;41.820;23.490;2023-05-09T07:16:54;90284.75;;;14.79;64.87
10366;BME280;5229;41.820;23.490;2023-05-09T07:19:20;90286.41;;;14.84;65.09
10366;BME280;5229;41.820;23.490;2023-05-09T07:21:47;90289.13;;;14.87;64.97
10366;BME280;5229;41.820;23.490;2023-05-09T07:24:14;90286.66;;;14.91;64.75
10366;BME280;5229;41.820;23.490;2023-05-09T07:26:41;90287.06;;;14.93;64.84
10366;BME280;5229;41.820;23.490;2023-05-09T07:29:07;90289.38;;;14.94;64.81
10366;BME280;5229;41.820;23.490;2023-05-09T07:31:35;90284.59;;;14.96;64.34
10366;BME280;5229;41.820;23.490;2023-05-09T07:34:02;90287.84;;;14.93;64.84
10366;BME280;5229;41.820;23.490;2023-05-09T07:36:29;90284.81;;;14.91;64.73
10366;BME280;5229;41.820;23.490;2023-05-09T07:38:56;90292.63;;;14.91;64.84
10366;BME280;5229;41.820;23.490;2023-05-09T07:41:22;90290.03;;;14.91;64.83
10366;BME280;5229;41.820;23.490;2023-05-09T07:43:49;90286.19;;;14.89;64.56
10366;BME280;5229;41.820;23.490;2023-05-09T07:46:16;90283.34;;;14.82;64.56
10366;BME280;5229;41.820;23.490;2023-05-09T07:48:44;90278.97;;;14.73;64.72
10366;BME280;5229;41.820;23.490;2023-05-09T07:51:11;90286.22;;;14.68;64.60
10366;BME280;5229;41.820;23.490;2023-05-09T07:53:38;90288.38;;;14.66;64.69
10366;BME280;5229;41.820;23.490;2023-05-09T07:56:05;90279.19;;;14.68;64.83
10366;BME280;5229;41.820;23.490;2023-05-09T07:58:32;90283.56;;;14.77;64.91
10366;BME280;5229;41.820;23.490;2023-05-09T08:00:59;90284.56;;;14.84;64.45
10366;BME280;5229;41.820;23.490;2023-05-09T08:03:25;90276.53;;;14.89;64.69
10366;BME280;5229;41.820;23.490;2023-05-09T08:05:54;90280.47;;;14.95;63.76
10366;BME280;5229;41.820;23.490;2023-05-09T08:08:21;90282.84;;;15.00;63.72
10366;BME280;5229;41.820;23.490;2023-05-09T08:10:49;90289.41;;;15.06;63.38
10366;BME280;5229;41.820;23.490;2023-05-09T08:13:15;90285.06;;;15.10;63.13
10366;BME280;5229;41.820;23.490;2023-05-09T08:15:43;90279.94;;;15.14;62.80
10366;BME280;5229;41.820;23.490;2023-05-09T08:18:10;90283.56;;;15.21;62.77
10366;BME280;5229;41.820;23.490;2023-05-09T08:20:37;90280.88;;;15.30;62.49
10366;BME280;5229;41.820;23.490;2023-05-09T08:23:05;90284.28;;;15.42;62.42
10366;BME280;5229;41.820;23.490;2023-05-09T08:25:32;90285.72;;;15.52;62.07
10366;BME280;5229;41.820;23.490;2023-05-09T08:27:59;90283.44;;;15.62;61.79
10366;BME280;5229;41.820;23.490;2023-05-09T08:30:25;90281.47;;;15.71;61.54
10366;BME280;5229;41.820;23.490;2023-05-09T08:32:53;90281.81;;;15.82;61.80
10366;BME280;5229;41.820;23.490;2023-05-09T08:35:20;90286.72;;;15.95;61.29
10366;BME280;5229;41.820;23.490;2023-05-09T08:37:47;90285.41;;;16.01;60.48
10366;BME280;5229;41.820;23.490;2023-05-09T08:40:16;90282.56;;;16.06;60.06
10366;BME280;5229;41.820;23.490;2023-05-09T08:42:43;90287.91;;;16.10;59.73
10366;BME280;5229;41.820;23.490;2023-05-09T08:45:13;90282.00;;;16.13;59.47
10366;BME280;5229;41.820;23.490;2023-05-09T08:47:41;90279.81;;;16.15;59.30
10366;BME280;5229;41.820;23.490;2023-05-09T08:50:08;90279.81;;;16.15;58.64
10366;BME280;5229;41.820;23.490;2023-05-09T08:52:36;90282.56;;;16.18;59.22
10366;BME280;5229;41.820;23.490;2023-05-09T08:55:03;90277.09;;;16.23;59.20
10366;BME280;5229;41.820;23.490;2023-05-09T08:57:32;90272.38;;;16.29;58.68
10366;BME280;5229;41.820;23.490;2023-05-09T09:00:00;90269.84;;;16.32;59.25
10366;BME280;5229;41.820;23.490;2023-05-09T09:02:31;90275.53;;;16.34;58.97
10366;BME280;5229;41.820;23.490;2023-05-09T09:04:58;90279.25;;;16.33;58.87
10366;BME280;5229;41.820;23.490;2023-05-09T09:07:25;90284.91;;;16.35;59.38
10366;BME280;5229;41.820;23.490;2023-05-09T09:09:53;90282.72;;;16.37;59.42
10366;BME280;5229;41.820;23.490;2023-05-09T09:12:21;90279.00;;;16.38;59.62
10366;BME280;5229;41.820;23.490;2023-05-09T09:14:52;90284.41;;;16.42;58.96
10366;BME280;5229;41.820;23.490;2023-05-09T09:17:23;90279.56;;;16.44;58.86
10366;BME280;5229;41.820;23.490;2023-05-09T09:19:54;90281.22;;;16.48;59.00
10366;BME280;5229;41.820;23.490;2023-05-09T09:22:21;90282.41;;;16.51;58.77
10366;BME280;5229;41.820;23.490;2023-05-09T09:24:49;90285.34;;;16.49;59.01
10366;BME280;5229;41.820;23.490;2023-05-09T09:27:16;90287.53;;;16.47;58.66
10366;BME280;5229;41.820;23.490;2023-05-09T09:29:43;90287.75;;;16.42;58.68
10366;BME280;5229;41.820;23.490;2023-05-09T09:32:11;90288.84;;;16.41;59.36
10366;BME280;5229;41.820;23.490;2023-05-09T09:34:38;90282.06;;;16.40;59.07
10366;BME280;5229;41.820;23.490;2023-05-09T09:37:05;90287.22;;;16.49;59.21
10366;BME280;5229;41.820;23.490;2023-05-09T09:39:32;90281.06;;;16.57;59.74
10366;BME280;5229;41.820;23.490;2023-05-09T09:42:09;90285.00;;;16.63;59.41
10366;BME280;5229;41.820;23.490;2023-05-09T09:44:36;90285.59;;;16.72;59.56
10366;BME280;5229;41.820;23.490;2023-05-09T09:47:03;90286.78;;;16.74;58.89
10366;BME280;5229;41.820;23.490;2023-05-09T09:49:31;90285.38;;;16.77;59.50
10366;BME280;5229;41.820;23.490;2023-05-09T09:51:57;90281.75;;;16.81;59.06
10366;BME280;5229;41.820;23.490;2023-05-09T09:54:25;90280.75;;;16.86;58.98
10366;BME280;5229;41.820;23.490;2023-05-09T09:56:53;90280.53;;;16.91;59.24
10366;BME280;5229;41.820;23.490;2023-05-09T09:59:22;90279.50;;;16.95;58.84
10366;BME280;5229;41.820;23.490;2023-05-09T10:01:57;90280.38;;;16.99;58.69
10366;BME280;5229;41.820;23.490;2023-05-09T10:04:27;90281.31;;;17.07;58.60
10366;BME280;5229;41.820;23.490;2023-05-09T10:06:56;90290.03;;;17.11;58.49
10366;BME280;5229;41.820;23.490;2023-05-09T10:09:24;90287.00;;;17.09;58.03
10366;BME280;5229;41.820;23.490;2023-05-09T10:11:52;90282.31;;;17.02;58.23
10366;BME280;5229;41.820;23.490;2023-05-09T10:14:21;90288.59;;;16.98;57.96
10366;BME280;5229;41.820;23.490;2023-05-09T10:16:50;90283.22;;;16.94;57.85
10366;BME280;5229;41.820;23.490;2023-05-09T10:19:18;90283.47;;;16.89;58.24
10366;BME280;5229;41.820;23.490;2023-05-09T10:21:51;90283.38;;;16.86;58.12
10366;BME280;5229;41.820;23.490;2023-05-09T10:24:27;90283.63;;;16.81;58.58
10366;BME280;5229;41.820;23.490;2023-05-09T10:26:58;90285.91;;;16.82;58.76
10366;BME280;5229;41.820;23.490;2023-05-09T10:29:33;90291.47;;;16.81;58.26
10366;BME280;5229;41.820;23.490;2023-05-09T10:32:04;90285.72;;;16.75;59.13
10366;BME280;5229;41.820;23.490;2023-05-09T10:34:36;90287.47;;;16.71;58.60
10366;BME280;5229;41.820;23.490;2023-05-09T10:37:07;90279.84;;;16.66;59.07
10366;BME280;5229;41.820;23.490;2023-05-09T10:39:36;90277.34;;;16.58;59.08
10366;BME280;5229;41.820;23.490;2023-05-09T10:42:03;90285.78;;;16.51;59.56
10366;BME280;5229;41.820;23.490;2023-05-09T10:44:32;90280.97;;;16.41;59.38
10366;BME280;5229;41.820;23.490;2023-05-09T10:46:59;90280.69;;;16.31;59.89
10366;BME280;5229;41.820;23.490;2023-05-09T10:49:27;90279.72;;;16.23;59.79
10366;BME280;5229;41.820;23.490;2023-05-09T10:51:54;90286.91;;;16.14;59.97
10366;BME280;5229;41.820;23.490;2023-05-09T10:54:28;90280.38;;;16.08;60.67
10366;BME280;5229;41.820;23.490;2023-05-09T10:56:59;90284.75;;;16.04;60.33
10366;BME280;5229;41.820;23.490;2023-05-09T10:59:33;90289.53;;;16.02;60.55
10366;BME280;5229;41.820;23.490;2023-05-09T11:02:02;90286.94;;;16.02;60.82
10366;BME280;5229;41.820;23.490;2023-05-09T11:04:30;90288.44;;;16.03;60.48
10366;BME280;5229;41.820;23.490;2023-05-09T11:06:57;90291.50;;;16.05;60.16
10366;BME280;5229;41.820;23.490;2023-05-09T11:09:29;90287.69;;;16.03;59.94
10366;BME280;5229;41.820;23.490;2023-05-09T11:12:01;90279.31;;;15.97;59.45
10366;BME280;5229;41.820;23.490;2023-05-09T11:14:38;90283.78;;;15.97;59.80
10366;BME280;5229;41.820;23.490;2023-05-09T11:17:06;90281.94;;;15.97;59.40
10366;BME280;5229;41.820;23.490;2023-05-09T11:22:20;90279.63;;;15.96;58.84
10366;BME280;5229;41.820;23.490;2023-05-09T11:24:50;90281.25;;;16.00;58.88
10366;BME280;5229;41.820;23.490;2023-05-09T11:27:20;90280.91;;;16.02;58.56
10366;BME280;5229;41.820;23.490;2023-05-09T11:29:50;90279.53;;;16.04;58.85
10366;BME280;5229;41.820;23.490;2023-05-09T11:32:18;90279.06;;;16.02;57.79
10366;BME280;5229;41.820;23.490;2023-05-09T11:34:45;90280.19;;;16.01;57.34
10366;BME280;5229;41.820;23.490;2023-05-09T11:37:15;90281.25;;;16.00;57.64
10366;BME280;5229;41.820;23.490;2023-05-09T11:39:59;90284.97;;;15.99;58.39
10366;BME280;5229;41.820;23.490;2023-05-09T11:42:29;90282.56;;;16.06;58.79
10366;BME280;5229;41.820;23.490;2023-05-09T11:44:57;90275.47;;;16.07;58.15
10366;BME280;5229;41.820;23.490;2023-05-09T11:47:24;90280.94;;;16.14;59.10
10366;BME280;5229;41.820;23.490;2023-05-09T11:49:53;90285.19;;;16.18;58.40
10366;BME280;5229;41.820;23.490;2023-05-09T11:52:21;90281.47;;;16.19;58.86
10366;BME280;5229;41.820;23.490;2023-05-09T11:54:48;90281.47;;;16.19;59.04
10366;BME280;5229;41.820;23.490;2023-05-09T11:57:15;90280.69;;;16.19;59.89
10366;BME280;5229;41.820;23.490;2023-05-09T11:59:43;90281.34;;;16.16;59.83
10366;BME280;5229;41.820;23.490;2023-05-09T12:02:11;90282.78;;;16.13;60.14
10366;BME280;5229;41.820;23.490;2023-05-09T12:04:38;90276.66;;;16.09;59.36
10366;BME280;5229;41.820;23.490;2023-05-09T12:07:05;90278.84;;;16.07;60.12
10366;BME280;5229;41.820;23.490;2023-05-09T12:09:34;90275.16;;;16.08;60.04
10366;BME280;5229;41.820;23.490;2023-05-09T12:12:08;90270.66;;;16.09;59.31
10366;BME280;5229;41.820;23.490;2023-05-09T12:14:36;90277.13;;;16.11;59.88
10366;BME280;5229;41.820;23.490;2023-05-09T12:17:05;90276.88;;;16.16;59.69
10366;BME280;5229;41.820;23.490;2023-05-09T12:19:32;90268.38;;;16.19;60.41
10366;BME280;5229;41.820;23.490;2023-05-09T12:22:00;90274.81;;;16.22;60.09
10366;BME280;5229;41.820;23.490;2023-05-09T12:24:28;90270.44;;;16.26;59.76
10366;BME280;5229;41.820;23.490;2023-05-09T12:26:56;90261.59;;;16.30;60.10
10366;BME280;5229;41.820;23.490;2023-05-09T12:29:24;90261.25;;;16.32;60.23
10366;BME280;5229;41.820;23.490;2023-05-09T12:31:52;90264.75;;;16.36;60.07
10366;BME280;5229;41.820;23.490;2023-05-09T12:34:20;90259.94;;;16.38;60.19
10366;BME280;5229;41.820;23.490;2023-05-09T12:36:47;90265.59;;;16.40;60.56
10366;BME280;5229;41.820;23.490;2023-05-09T12:39:15;90262.78;;;16.45;60.52
10366;BME280;5229;41.820;23.490;2023-05-09T12:41:46;90263.22;;;16.47;60.69
10366;BME280;5229;41.820;23.490;2023-05-09T12:44:18;90257.00;;;16.51;60.89
10366;BME280;5229;41.820;23.490;2023-05-09T12:46:59;90253.94;;;16.49;60.71
10366;BME280;5229;41.820;23.490;2023-05-09T12:49:28;90251.09;;;16.54;60.50
10366;BME280;5229;41.820;23.490;2023-05-09T12:51:57;90255.66;;;16.57;60.57
10366;BME280;5229;41.820;23.490;2023-05-09T12:54:26;90253.78;;;16.58;60.40
10366;BME280;5229;41.820;23.490;2023-05-09T12:56:54;90250.44;;;16.57;60.23
10366;BME280;5229;41.820;23.490;2023-05-09T12:59:23;90251.50;;;16.56;59.55
10366;BME280;5229;41.820;23.490;2023-05-09T13:01:52;90249.56;;;16.53;60.02
10366;BME280;5229;41.820;23.490;2023-05-09T13:04:20;90249.56;;;16.53;59.90
10366;BME280;5229;41.820;23.490;2023-05-09T13:06:50;90254.78;;;16.53;59.91